Time;durP1;ratioP1;P1;durP2;ratioP2;P2;SDS_P1;SDS_P2;PMS_P1;PMS_P2;Temp;Humidity;BMP_temperature;BMP_pressure;BME280_temperature;BME280_humidity;BME280_pressure;Samples;Min_cycle;Max_cycle;Signal;HPM_P1;HPM_P2
2023/12/18 00:00:11;;;;;;;14.23;12.60;;;3.50;99.90;;;;;;5114824;28;20222;-71
2023/12/18 00:02:37;;;;;;;16.13;12.67;;;3.50;99.90;;;;;;5114544;28;20278;-70
2023/12/18 00:05:03;;;;;;;13.27;11.87;;;3.50;99.90;;;;;;5114254;28;20426;-71
2023/12/18 00:07:28;;;;;;;13.07;11.03;;;3.50;99.90;;;;;;5114385;28;20160;-70
2023/12/18 00:09:54;;;;;;;12.10;10.80;;;3.50;99.90;;;;;;5114756;28;20665;-68
2023/12/18 00:12:20;;;;;;;13.20;11.90;;;3.60;99.90;;;;;;5114535;28;20187;-68
2023/12/18 00:14:45;;;;;;;13.13;11.00;;;3.50;99.90;;;;;;5114133;28;20414;-69
2023/12/18 00:17:11;;;;;;;12.60;10.03;;;3.50;99.90;;;;;;5114052;28;20651;-70
2023/12/18 00:19:37;;;;;;;12.90;10.10;;;3.40;99.90;;;;;;5114323;28;20173;-70
2023/12/18 00:22:03;;;;;;;11.83;10.47;;;3.50;99.90;;;;;;5113844;28;20202;-71
2023/12/18 00:24:28;;;;;;;11.73;9.53;;;3.60;99.90;;;;;;5114321;28;20487;-70
2023/12/18 00:26:54;;;;;;;13.73;10.33;;;3.60;99.90;;;;;;5114134;28;20537;-70
2023/12/18 00:29:20;;;;;;;11.97;9.70;;;3.70;99.90;;;;;;5114476;28;20167;-70
2023/12/18 00:31:47;;;;;;;10.20;9.10;;;3.70;99.90;;;;;;5113959;28;20192;-70
2023/12/18 00:34:13;;;;;;;10.67;9.67;;;3.70;99.90;;;;;;5114129;28;20219;-70
2023/12/18 00:36:39;;;;;;;8.93;8.03;;;3.70;99.90;;;;;;5114220;28;20909;-70
2023/12/18 00:39:05;;;;;;;8.60;7.80;;;3.60;99.90;;;;;;5113975;28;20584;-70
2023/12/18 00:41:32;;;;;;;12.07;8.40;;;3.50;99.90;;;;;;5113805;28;20207;-69
2023/12/18 00:43:57;;;;;;;8.37;7.53;;;3.50;99.90;;;;;;5113818;28;20401;-70
2023/12/18 00:46:23;;;;;;;7.73;6.90;;;3.40;99.90;;;;;;5114392;28;20757;-70
2023/12/18 00:48:49;;;;;;;8.57;6.57;;;3.40;99.90;;;;;;5113910;28;20169;-70
2023/12/18 00:51:14;;;;;;;11.20;6.00;;;3.40;99.90;;;;;;5113697;28;20181;-70
2023/12/18 00:53:40;;;;;;;6.97;6.30;;;3.40;99.90;;;;;;5113989;28;20171;-70
2023/12/18 00:56:06;;;;;;;7.57;6.20;;;3.40;99.90;;;;;;5118306;28;20161;-70
2023/12/18 00:58:31;;;;;;;7.20;6.10;;;3.40;99.90;;;;;;5118109;28;20175;-70
2023/12/18 01:00:57;;;;;;;7.10;6.47;;;3.40;99.90;;;;;;5117927;28;20674;-70
2023/12/18 01:03:22;;;;;;;7.93;6.97;;;3.40;99.90;;;;;;5117901;28;20282;-70
2023/12/18 01:05:48;;;;;;;10.13;7.80;;;3.30;99.90;;;;;;5118039;28;20164;-69
2023/12/18 01:08:14;;;;;;;7.10;6.40;;;3.30;99.90;;;;;;5117746;28;20221;-70
2023/12/18 01:10:40;;;;;;;11.03;8.17;;;3.20;99.90;;;;;;5118248;28;20165;-70
2023/12/18 01:13:05;;;;;;;7.03;6.33;;;3.30;99.90;;;;;;5117838;28;20161;-71
2023/12/18 01:15:31;;;;;;;6.90;6.20;;;3.50;99.90;;;;;;5117920;28;20172;-71
2023/12/18 01:17:57;;;;;;;7.90;7.10;;;3.60;99.90;;;;;;5117416;28;20165;-70
2023/12/18 01:20:23;;;;;;;9.93;8.90;;;3.70;99.90;;;;;;5117834;28;20657;-71
2023/12/18 01:22:48;;;;;;;8.60;7.80;;;3.70;99.90;;;;;;5117289;28;20203;-71
2023/12/18 01:25:14;;;;;;;10.47;9.30;;;3.80;99.90;;;;;;5117414;28;20920;-71
2023/12/18 01:27:41;;;;;;;10.53;9.03;;;3.80;99.90;;;;;;5117531;28;20165;-71
2023/12/18 01:30:08;;;;;;;9.37;8.40;;;3.90;99.90;;;;;;5118100;28;20165;-71
2023/12/18 01:32:34;;;;;;;9.10;8.30;;;3.70;99.90;;;;;;5117422;28;20995;-70
2023/12/18 01:35:00;;;;;;;9.10;8.20;;;3.70;99.90;;;;;;5117658;28;20430;-71
2023/12/18 01:37:25;;;;;;;10.73;9.20;;;3.70;99.90;;;;;;5117679;28;20590;-69
2023/12/18 01:39:51;;;;;;;10.13;9.00;;;3.60;99.90;;;;;;5117024;28;20177;-69
2023/12/18 01:42:17;;;;;;;9.67;8.70;;;3.60;99.90;;;;;;5117906;28;20201;-70
2023/12/18 01:44:42;;;;;;;10.93;8.00;;;3.60;99.90;;;;;;5117044;28;20168;-70
2023/12/18 01:47:08;;;;;;;10.13;9.00;;;3.60;99.90;;;;;;5117073;28;20623;-70
2023/12/18 01:49:35;;;;;;;11.37;10.27;;;3.60;99.90;;;;;;5099288;28;20169;-69
2023/12/18 01:52:02;;;;;;;11.27;10.23;;;3.60;99.90;;;;;;5117114;28;20483;-70
2023/12/18 01:54:28;;;;;;;10.43;8.77;;;3.60;99.90;;;;;;5116371;28;20743;-70
2023/12/18 01:56:54;;;;;;;9.90;9.00;;;3.60;99.90;;;;;;5117543;28;20438;-70
2023/12/18 01:59:22;;;;;;;12.57;11.30;;;3.60;99.90;;;;;;5098489;28;20760;-70
2023/12/18 02:01:49;;;;;;;11.40;10.27;;;3.50;99.90;;;;;;5116713;28;20449;-70
2023/12/18 02:04:16;;;;;;;13.73;11.43;;;3.50;99.90;;;;;;5116818;28;20475;-70
2023/12/18 02:06:42;;;;;;;12.97;11.43;;;3.50;99.90;;;;;;5116641;27;20476;-70
2023/12/18 02:09:09;;;;;;;11.23;9.90;;;3.40;99.90;;;;;;5116818;28;20394;-70
2023/12/18 02:11:35;;;;;;;13.47;12.17;;;3.40;99.90;;;;;;5116605;28;20422;-69
2023/12/18 02:14:01;;;;;;;11.50;10.40;;;3.40;99.90;;;;;;5116476;28;20518;-70
2023/12/18 02:16:27;;;;;;;11.70;10.60;;;3.30;99.90;;;;;;5116925;28;20555;-70
2023/12/18 02:18:54;;;;;;;12.80;11.20;;;3.30;99.90;;;;;;5116521;28;20669;-70
2023/12/18 02:21:21;;;;;;;13.40;10.90;;;3.20;99.90;;;;;;5116228;27;20283;-70
2023/12/18 02:23:50;;;;;;;14.63;12.70;;;3.20;99.90;;;;;;5116875;28;20481;-69
2023/12/18 02:26:17;;;;;;;11.90;10.80;;;3.20;99.90;;;;;;5116204;28;20412;-68
2023/12/18 02:28:46;;;;;;;11.50;10.30;;;3.10;99.90;;;;;;5116035;28;20926;-69
2023/12/18 02:31:15;;;;;;;11.23;10.13;;;3.10;99.90;;;;;;5116190;28;20422;-69
2023/12/18 02:33:41;;;;;;;12.40;11.10;;;3.20;99.90;;;;;;5116212;28;20485;-70
2023/12/18 02:36:07;;;;;;;15.50;11.73;;;3.10;99.90;;;;;;5116422;28;20417;-70
2023/12/18 02:38:33;;;;;;;10.90;9.90;;;3.10;99.90;;;;;;5116331;28;20489;-70
2023/12/18 02:40:59;;;;;;;11.27;10.10;;;3.10;99.90;;;;;;5116368;28;20461;-70
2023/12/18 02:43:24;;;;;;;14.00;12.60;;;3.00;99.90;;;;;;5115793;28;20439;-70
2023/12/18 02:45:50;;;;;;;13.00;11.60;;;3.00;99.90;;;;;;5115815;28;20173;-70
2023/12/18 02:48:16;;;;;;;10.30;9.20;;;3.00;99.90;;;;;;5116002;28;20168;-70
2023/12/18 02:50:41;;;;;;;13.93;12.03;;;3.00;99.90;;;;;;5115890;28;20204;-71
2023/12/18 02:53:07;;;;;;;12.90;11.60;;;3.00;99.90;;;;;;5115686;28;20168;-70
2023/12/18 02:55:33;;;;;;;11.57;10.47;;;3.00;99.90;;;;;;5116020;28;20180;-68
2023/12/18 02:57:59;;;;;;;11.83;10.73;;;3.00;99.90;;;;;;5116050;28;20403;-69
2023/12/18 03:00:25;;;;;;;12.50;11.20;;;3.10;99.90;;;;;;5116456;28;20653;-70
2023/12/18 03:02:50;;;;;;;9.67;8.73;;;3.00;99.90;;;;;;5115458;28;20627;-70
2023/12/18 03:05:16;;;;;;;12.53;11.33;;;3.00;99.90;;;;;;5114254;28;20760;-71
2023/12/18 03:07:42;;;;;;;11.20;10.20;;;3.00;99.90;;;;;;5115440;28;20195;-69
2023/12/18 03:10:08;;;;;;;10.13;9.13;;;3.10;99.90;;;;;;5115721;28;20167;-70
2023/12/18 03:12:33;;;;;;;10.20;9.13;;;3.10;99.90;;;;;;5115404;28;20662;-69
2023/12/18 03:14:59;;;;;;;12.23;10.10;;;3.10;99.90;;;;;;5115371;28;20161;-70
2023/12/18 03:17:24;;;;;;;10.50;9.47;;;2.90;99.90;;;;;;5114844;28;20168;-70
2023/12/18 03:19:50;;;;;;;10.90;9.27;;;2.90;99.90;;;;;;5115576;28;20176;-70
2023/12/18 03:22:16;;;;;;;9.83;8.93;;;2.90;99.90;;;;;;5114642;28;20207;-70
2023/12/18 03:24:42;;;;;;;9.70;8.70;;;2.90;99.90;;;;;;5115312;28;20165;-70
2023/12/18 03:27:08;;;;;;;10.30;8.90;;;3.00;99.90;;;;;;5115519;28;20176;-69
2023/12/18 03:29:34;;;;;;;9.63;8.73;;;3.00;99.90;;;;;;5115155;28;20414;-69
2023/12/18 03:32:00;;;;;;;10.13;8.60;;;2.90;99.90;;;;;;5115425;28;20430;-69
2023/12/18 03:34:26;;;;;;;8.43;7.63;;;2.90;99.90;;;;;;5112098;28;20410;-70
2023/12/18 03:36:52;;;;;;;10.13;8.10;;;3.00;99.90;;;;;;5114968;28;20499;-70
2023/12/18 03:39:17;;;;;;;8.90;8.00;;;3.00;99.90;;;;;;5115630;28;20173;-70
2023/12/18 03:41:43;;;;;;;8.80;7.90;;;2.90;99.90;;;;;;5114831;28;20200;-71
2023/12/18 03:44:09;;;;;;;7.40;6.60;;;2.90;99.90;;;;;;5114752;28;20646;-69
2023/12/18 03:46:34;;;;;;;8.50;7.70;;;3.00;99.90;;;;;;5114064;28;20188;-71
2023/12/18 03:49:00;;;;;;;8.13;7.33;;;3.00;99.90;;;;;;5114745;28;20259;-71
2023/12/18 03:51:26;;;;;;;10.47;7.50;;;3.00;99.90;;;;;;5115025;28;20188;-71
2023/12/18 03:53:51;;;;;;;8.03;7.33;;;3.00;99.90;;;;;;5114419;28;20544;-70
2023/12/18 03:56:17;;;;;;;8.60;7.10;;;2.90;99.90;;;;;;5114542;28;20212;-70
2023/12/18 03:58:43;;;;;;;8.40;7.60;;;2.90;99.90;;;;;;5114370;28;20192;-69
2023/12/18 04:01:08;;;;;;;7.67;6.63;;;2.90;99.90;;;;;;5114502;28;20185;-71
2023/12/18 04:03:34;;;;;;;7.30;6.60;;;3.00;99.90;;;;;;5114463;28;20196;-71
2023/12/18 04:06:00;;;;;;;7.47;6.80;;;3.00;99.90;;;;;;5114445;28;20204;-70
2023/12/18 04:08:25;;;;;;;6.57;5.97;;;3.00;99.90;;;;;;5114290;28;20630;-70
2023/12/18 04:10:51;;;;;;;6.37;5.60;;;3.10;99.90;;;;;;5114164;28;20179;-71
2023/12/18 04:13:17;;;;;;;7.10;6.40;;;3.00;99.90;;;;;;5114707;28;20171;-70
2023/12/18 04:15:42;;;;;;;6.20;5.50;;;3.00;99.90;;;;;;5114166;28;20294;-71
2023/12/18 04:18:08;;;;;;;6.10;5.50;;;3.00;99.90;;;;;;5114168;28;20247;-69
2023/12/18 04:20:34;;;;;;;6.23;5.73;;;3.00;99.90;;;;;;5112693;28;20681;-69
2023/12/18 04:23:00;;;;;;;5.80;5.27;;;3.00;99.90;;;;;;5114229;28;20836;-70
2023/12/18 04:25:26;;;;;;;5.90;5.30;;;3.00;99.90;;;;;;5114563;28;20407;-70
2023/12/18 04:27:52;;;;;;;5.10;4.67;;;3.00;99.90;;;;;;5113559;28;20160;-70
2023/12/18 04:30:18;;;;;;;5.30;4.80;;;3.00;99.90;;;;;;5113374;28;20582;-70
2023/12/18 04:32:43;;;;;;;5.00;4.50;;;3.00;99.90;;;;;;5113674;28;20439;-71
2023/12/18 04:35:09;;;;;;;4.80;4.30;;;3.10;99.90;;;;;;5113908;28;20169;-71
2023/12/18 04:37:35;;;;;;;5.63;5.00;;;3.10;99.90;;;;;;5113708;28;20233;-69
2023/12/18 04:40:03;;;;;;;5.03;4.63;;;3.10;99.90;;;;;;5113701;28;20176;-70
2023/12/18 04:42:29;;;;;;;6.57;5.30;;;3.10;99.90;;;;;;5113949;28;20204;-70
2023/12/18 04:44:55;;;;;;;5.70;5.17;;;3.00;99.90;;;;;;5113788;28;20822;-70
2023/12/18 04:47:20;;;;;;;4.97;4.47;;;2.80;99.90;;;;;;5112415;28;20852;-71
2023/12/18 04:49:47;;;;;;;6.27;5.67;;;2.80;99.90;;;;;;5113770;28;20482;-70
2023/12/18 04:52:12;;;;;;;6.10;5.50;;;2.80;99.90;;;;;;5113996;28;20191;-70
2023/12/18 04:54:38;;;;;;;5.50;5.00;;;2.90;99.90;;;;;;5113862;28;20402;-69
2023/12/18 04:57:04;;;;;;;5.80;5.20;;;2.80;99.90;;;;;;5113715;28;20560;-71
2023/12/18 04:59:30;;;;;;;5.03;4.53;;;2.90;99.90;;;;;;5113857;28;20211;-71
2023/12/18 05:01:56;;;;;;;5.40;4.90;;;2.90;99.90;;;;;;5113408;28;20482;-70
2023/12/18 05:04:23;;;;;;;6.43;5.80;;;2.80;99.90;;;;;;5113534;28;20169;-69
2023/12/18 05:06:49;;;;;;;7.03;6.33;;;2.70;99.90;;;;;;5088719;28;20476;-69
2023/12/18 05:09:15;;;;;;;5.30;4.80;;;2.60;99.90;;;;;;5090664;28;20738;-68
2023/12/18 05:11:41;;;;;;;5.57;5.03;;;2.60;99.90;;;;;;5101526;28;20430;-68
2023/12/18 05:14:08;;;;;;;6.30;5.70;;;2.70;99.90;;;;;;5083936;28;20407;-69
2023/12/18 05:16:33;;;;;;;7.73;6.90;;;2.70;99.90;;;;;;5091078;28;20487;-69
2023/12/18 05:18:59;;;;;;;7.67;6.20;;;2.70;99.90;;;;;;5103805;28;20402;-70
2023/12/18 05:21:25;;;;;;;6.70;5.87;;;2.80;99.90;;;;;;5085038;28;20244;-69
2023/12/18 05:23:51;;;;;;;5.57;5.07;;;2.80;99.90;;;;;;5090085;28;20185;-70
2023/12/18 05:26:16;;;;;;;6.33;5.73;;;2.80;99.90;;;;;;5083414;28;20177;-69
2023/12/18 05:28:45;;;;;;;5.63;5.03;;;2.70;99.90;;;;;;5083699;28;20490;-70
2023/12/18 05:31:11;;;;;;;6.20;5.30;;;2.80;99.90;;;;;;5103219;28;20200;-69
2023/12/18 05:33:37;;;;;;;5.50;5.00;;;2.70;99.90;;;;;;5094487;28;20411;-70
2023/12/18 05:36:03;;;;;;;4.93;4.43;;;2.70;99.90;;;;;;5083405;28;20407;-69
2023/12/18 05:38:29;;;;;;;5.37;4.90;;;2.60;99.90;;;;;;5083658;28;20173;-70
2023/12/18 05:40:54;;;;;;;7.30;5.67;;;2.70;99.90;;;;;;5085781;28;20501;-70
2023/12/18 05:43:20;;;;;;;6.50;5.90;;;2.70;99.90;;;;;;5087727;28;20190;-70
2023/12/18 05:45:45;;;;;;;7.73;6.90;;;2.60;99.90;;;;;;5095310;28;20244;-70
2023/12/18 05:48:11;;;;;;;7.27;6.50;;;2.70;99.90;;;;;;5096483;28;20161;-69
2023/12/18 05:50:37;;;;;;;7.80;6.50;;;2.70;99.90;;;;;;5096412;28;20161;-70
2023/12/18 05:53:02;;;;;;;6.03;5.53;;;2.70;99.90;;;;;;5100476;28;20176;-70
2023/12/18 05:55:28;;;;;;;7.30;6.60;;;2.70;99.90;;;;;;5116537;28;20301;-69
2023/12/18 05:57:54;;;;;;;7.80;7.10;;;2.70;99.90;;;;;;5116541;28;20198;-69
2023/12/18 06:00:19;;;;;;;8.67;7.80;;;2.70;99.90;;;;;;5116390;28;20665;-70
2023/12/18 06:02:45;;;;;;;8.00;7.20;;;2.80;99.90;;;;;;5116327;28;20210;-69
2023/12/18 06:05:11;;;;;;;7.90;6.97;;;2.90;99.90;;;;;;5116727;28;20249;-70
2023/12/18 06:07:37;;;;;;;11.03;10.07;;;2.80;99.90;;;;;;5116374;28;20406;-70
2023/12/18 06:10:03;;;;;;;9.20;8.40;;;2.70;99.90;;;;;;5115707;28;20214;-69
2023/12/18 06:12:28;;;;;;;12.63;9.47;;;2.80;99.90;;;;;;5116401;28;20194;-70
2023/12/18 06:14:54;;;;;;;9.20;8.07;;;2.70;99.90;;;;;;5116221;28;20485;-68
2023/12/18 06:17:19;;;;;;;9.23;8.27;;;2.70;99.90;;;;;;5116517;28;20631;-70
2023/12/18 06:19:47;;;;;;;10.90;9.80;;;2.70;99.90;;;;;;5116388;28;20165;-69
2023/12/18 06:22:13;;;;;;;9.00;8.20;;;2.60;99.90;;;;;;5115936;28;20230;-70
2023/12/18 06:24:39;;;;;;;9.57;8.50;;;2.60;99.90;;;;;;5115846;28;20402;-70
2023/12/18 06:27:05;;;;;;;10.13;9.20;;;2.60;99.90;;;;;;5116101;28;20406;-70
2023/12/18 06:29:31;;;;;;;9.73;8.80;;;2.60;99.90;;;;;;5116328;28;20486;-70
2023/12/18 06:31:57;;;;;;;9.00;8.10;;;2.60;99.90;;;;;;5115911;28;20734;-70
2023/12/18 06:34:23;;;;;;;8.80;7.90;;;2.50;99.90;;;;;;5115806;28;20173;-70
2023/12/18 06:36:49;;;;;;;8.20;7.30;;;2.60;99.90;;;;;;5115837;28;20410;-71
2023/12/18 06:39:14;;;;;;;8.67;7.10;;;2.60;99.90;;;;;;5115924;28;20438;-70
2023/12/18 06:41:40;;;;;;;7.60;6.53;;;2.70;99.90;;;;;;5115972;28;20192;-70
2023/12/18 06:44:06;;;;;;;7.57;6.20;;;2.60;99.90;;;;;;5115849;28;20164;-70
2023/12/18 06:46:33;;;;;;;7.10;6.50;;;2.40;99.90;;;;;;5116025;28;20167;-70
2023/12/18 06:49:00;;;;;;;8.83;7.40;;;2.50;99.90;;;;;;5114452;28;20175;-68
2023/12/18 06:51:25;;;;;;;6.73;6.13;;;2.50;99.90;;;;;;5117266;27;20791;-70
2023/12/18 06:53:51;;;;;;;6.10;5.47;;;2.50;99.90;;;;;;5115425;28;20440;-70
2023/12/18 06:56:16;;;;;;;6.83;6.23;;;2.50;99.90;;;;;;5116135;28;20165;-69
2023/12/18 06:58:42;;;;;;;8.10;7.40;;;2.60;99.90;;;;;;5115718;28;20191;-69
2023/12/18 07:01:08;;;;;;;9.80;7.50;;;2.50;99.90;;;;;;5115257;28;20532;-70
2023/12/18 07:03:34;;;;;;;8.33;7.53;;;2.40;99.90;;;;;;5115208;28;20185;-70
2023/12/18 07:06:00;;;;;;;7.40;6.70;;;2.50;99.90;;;;;;5115483;28;20160;-70
2023/12/18 07:08:28;;;;;;;12.17;10.67;;;2.60;99.90;;;;;;5115217;28;20535;-70
2023/12/18 07:10:55;;;;;;;9.90;8.90;;;2.70;99.90;;;;;;5115516;28;20398;-70
2023/12/18 07:13:20;;;;;;;9.50;8.70;;;2.70;99.90;;;;;;5115577;28;20414;-69
2023/12/18 07:15:46;;;;;;;10.03;9.07;;;2.70;99.90;;;;;;5115247;28;20468;-68
2023/12/18 07:18:13;;;;;;;9.60;8.60;;;2.70;99.90;;;;;;5115086;28;20165;-69
2023/12/18 07:20:40;;;;;;;8.20;7.33;;;2.60;99.90;;;;;;5114717;28;20184;-69
2023/12/18 07:23:05;;;;;;;8.97;8.10;;;2.60;99.90;;;;;;5115043;27;20430;-68
2023/12/18 07:25:31;;;;;;;9.00;8.20;;;2.60;99.90;;;;;;5114542;28;20463;-68
2023/12/18 07:27:57;;;;;;;8.57;7.67;;;2.50;99.90;;;;;;5114762;28;20658;-69
2023/12/18 07:30:22;;;;;;;10.47;9.37;;;2.60;99.90;;;;;;5114852;28;20167;-68
2023/12/18 07:32:48;;;;;;;8.50;7.70;;;2.70;99.90;;;;;;5114492;28;20252;-68
2023/12/18 07:35:13;;;;;;;8.93;8.03;;;2.70;99.90;;;;;;5114688;28;20169;-68
2023/12/18 07:37:39;;;;;;;8.60;7.70;;;2.70;99.90;;;;;;5114585;28;20169;-68
2023/12/18 07:40:06;;;;;;;9.83;8.93;;;2.80;99.90;;;;;;5114902;28;20214;-68
2023/12/18 07:42:32;;;;;;;9.00;7.43;;;2.80;99.90;;;;;;5115428;28;20216;-68
2023/12/18 07:44:58;;;;;;;9.10;8.03;;;2.80;99.90;;;;;;5114510;28;20452;-69
2023/12/18 07:47:23;;;;;;;8.03;7.27;;;2.80;99.90;;;;;;5114211;28;20169;-68
2023/12/18 07:49:49;;;;;;;7.47;6.77;;;2.90;99.90;;;;;;5114586;28;20406;-69
2023/12/18 07:52:16;;;;;;;7.50;6.77;;;2.90;99.90;;;;;;5114197;28;20245;-69
2023/12/18 07:54:45;;;;;;;7.30;6.60;;;2.90;99.90;;;;;;5112504;28;20410;-69
2023/12/18 07:57:10;;;;;;;7.47;6.77;;;2.90;99.90;;;;;;5112971;28;20402;-69
2023/12/18 07:59:39;;;;;;;8.93;7.30;;;2.90;99.90;;;;;;5113401;28;20421;-68
2023/12/18 08:02:07;;;;;;;9.67;8.47;;;3.00;99.90;;;;;;5113858;28;20192;-67
2023/12/18 08:04:32;;;;;;;6.60;6.00;;;2.90;99.90;;;;;;5114176;28;20437;-69
2023/12/18 08:06:58;;;;;;;7.73;7.00;;;3.00;99.90;;;;;;5114163;28;20403;-69
2023/12/18 08:09:25;;;;;;;8.33;7.40;;;2.90;99.90;;;;;;5114180;28;20630;-69
2023/12/18 08:11:52;;;;;;;7.47;6.70;;;2.90;99.90;;;;;;5113877;28;20718;-69
2023/12/18 08:14:18;;;;;;;7.60;6.20;;;2.90;99.90;;;;;;5113899;28;20413;-69
2023/12/18 08:16:43;;;;;;;7.07;6.37;;;2.80;99.90;;;;;;5114083;28;20407;-70
2023/12/18 08:19:09;;;;;;;7.33;6.50;;;2.90;99.90;;;;;;5113860;28;20201;-69
2023/12/18 08:21:35;;;;;;;7.20;6.50;;;3.00;99.90;;;;;;5113256;28;20693;-68
2023/12/18 08:24:00;;;;;;;8.90;6.57;;;3.10;99.90;;;;;;5113669;28;20173;-69
2023/12/18 08:26:26;;;;;;;6.23;5.27;;;3.00;99.90;;;;;;5113701;28;20398;-68
2023/12/18 08:28:52;;;;;;;6.83;6.13;;;3.10;99.90;;;;;;5114035;28;20164;-69
2023/12/18 08:31:17;;;;;;;6.47;5.87;;;3.10;99.90;;;;;;5113670;28;20806;-69
2023/12/18 08:33:43;;;;;;;8.47;6.43;;;3.10;99.90;;;;;;5113860;28;20165;-69
2023/12/18 08:36:09;;;;;;;7.90;7.20;;;3.10;99.90;;;;;;5113698;28;20172;-69
2023/12/18 08:38:34;;;;;;;8.40;7.50;;;3.00;99.90;;;;;;5113599;28;20541;-68
2023/12/18 08:41:00;;;;;;;8.10;7.30;;;3.10;99.90;;;;;;5095914;28;20224;-69
2023/12/18 08:43:26;;;;;;;9.47;7.73;;;3.20;99.90;;;;;;5113736;28;20180;-69
2023/12/18 08:45:51;;;;;;;8.60;7.50;;;3.30;99.90;;;;;;5113617;28;20160;-68
2023/12/18 08:48:17;;;;;;;9.07;7.50;;;3.30;99.90;;;;;;5113781;28;20192;-70
2023/12/18 08:50:43;;;;;;;7.97;7.17;;;3.20;99.90;;;;;;5113458;28;20243;-68
2023/12/18 08:53:09;;;;;;;8.40;7.60;;;3.30;99.90;;;;;;5113444;28;20161;-68
2023/12/18 08:55:38;;;;;;;10.40;7.47;;;3.40;99.90;;;;;;5113630;28;20398;-69
2023/12/18 08:58:08;;;;;;;8.83;8.03;;;3.60;99.90;;;;;;5113710;28;20172;-69
2023/12/18 09:00:35;;;;;;;8.03;7.23;;;3.60;99.90;;;;;;5113308;28;20397;-69
2023/12/18 09:03:01;;;;;;;7.67;6.77;;;3.70;99.90;;;;;;5113152;28;20574;-69
2023/12/18 09:05:28;;;;;;;6.80;6.20;;;3.70;99.90;;;;;;5113599;28;20438;-69
2023/12/18 09:07:54;;;;;;;6.43;5.83;;;3.70;99.90;;;;;;5114149;28;20502;-69
2023/12/18 09:10:23;;;;;;;6.33;5.73;;;3.70;99.90;;;;;;5113664;28;20584;-70
2023/12/18 09:12:51;;;;;;;6.37;5.77;;;3.80;99.90;;;;;;5113241;28;20418;-69
2023/12/18 09:15:16;;;;;;;7.53;6.80;;;3.90;99.90;;;;;;5114606;28;20413;-69
2023/12/18 09:17:42;;;;;;;5.97;5.47;;;4.00;99.90;;;;;;5117046;28;20892;-70
2023/12/18 09:20:08;;;;;;;6.83;5.60;;;4.00;99.90;;;;;;5117446;28;20196;-70
2023/12/18 09:22:35;;;;;;;7.50;6.73;;;4.00;99.90;;;;;;5117066;28;20458;-70
2023/12/18 09:25:01;;;;;;;6.00;5.40;;;4.10;99.90;;;;;;5117029;28;20439;-70
2023/12/18 09:27:27;;;;;;;7.33;5.90;;;4.10;99.90;;;;;;5117171;28;20394;-70
2023/12/18 09:29:53;;;;;;;5.50;5.00;;;4.10;99.90;;;;;;5117121;28;20161;-69
2023/12/18 09:32:18;;;;;;;8.37;5.60;;;4.20;99.90;;;;;;5116731;28;20195;-69
2023/12/18 09:34:44;;;;;;;6.10;5.50;;;4.30;99.90;;;;;;5110662;28;20266;-69
2023/12/18 09:37:09;;;;;;;7.40;6.70;;;4.40;99.90;;;;;;5116656;28;20156;-69
2023/12/18 09:39:35;;;;;;;7.17;6.33;;;4.40;99.90;;;;;;5117029;28;20178;-69
2023/12/18 09:42:01;;;;;;;8.53;6.83;;;4.50;99.90;;;;;;5117161;28;20200;-69
2023/12/18 09:44:31;;;;;;;8.00;7.20;;;4.50;99.90;;;;;;5116925;28;20426;-69
2023/12/18 09:47:00;;;;;;;9.60;6.20;;;4.60;99.90;;;;;;5116828;28;20402;-69
2023/12/18 09:49:26;;;;;;;7.00;6.40;;;4.60;99.90;;;;;;5116909;28;20417;-69
2023/12/18 09:52:00;;;;;;;7.70;6.97;;;4.60;99.90;;;;;;5116495;28;20418;-69
2023/12/18 09:54:27;;;;;;;8.50;6.73;;;4.80;99.90;;;;;;5115958;28;20814;-69
2023/12/18 09:56:55;;;;;;;7.07;6.47;;;5.00;99.90;;;;;;5116521;28;20460;-69
2023/12/18 09:59:21;;;;;;;7.90;5.90;;;5.00;99.90;;;;;;5116833;28;20409;-70
2023/12/18 10:01:46;;;;;;;7.90;6.70;;;5.10;99.90;;;;;;5116491;28;20853;-69
2023/12/18 10:04:12;;;;;;;7.07;6.47;;;5.20;99.90;;;;;;5116419;28;20411;-70
2023/12/18 10:06:39;;;;;;;6.13;5.50;;;5.30;99.90;;;;;;5116332;28;20240;-69
2023/12/18 10:09:14;;;;;;;6.50;5.90;;;5.30;99.90;;;;;;5116331;28;20428;-69
2023/12/18 10:11:45;;;;;;;9.43;6.10;;;5.30;99.90;;;;;;5116421;28;20763;-69
2023/12/18 10:14:14;;;;;;;8.33;6.70;;;5.40;99.90;;;;;;5116359;28;20756;-69
2023/12/18 10:16:41;;;;;;;6.80;6.07;;;5.40;99.90;;;;;;5115990;28;20399;-69
2023/12/18 10:19:08;;;;;;;7.83;6.03;;;5.50;99.90;;;;;;5116189;28;20439;-69
2023/12/18 10:21:34;;;;;;;7.03;6.03;;;5.50;99.90;;;;;;5115778;28;20928;-68
2023/12/18 10:24:04;;;;;;;6.43;5.67;;;5.60;99.90;;;;;;5115969;28;20464;-70
2023/12/18 10:26:31;;;;;;;7.37;6.67;;;5.70;99.90;;;;;;5114167;28;20164;-69
2023/12/18 10:28:57;;;;;;;9.17;8.30;;;5.80;99.90;;;;;;5115145;28;20401;-70
2023/12/18 10:31:24;;;;;;;8.57;7.77;;;5.90;99.90;;;;;;5115690;28;20417;-69
2023/12/18 10:33:51;;;;;;;9.20;8.30;;;5.90;99.90;;;;;;5115591;28;20454;-69
2023/12/18 10:36:22;;;;;;;8.87;7.90;;;5.90;99.90;;;;;;5116167;28;20770;-69
2023/12/18 10:38:52;;;;;;;9.53;8.63;;;6.00;99.90;;;;;;5115976;28;20393;-69
2023/12/18 10:41:21;;;;;;;8.47;7.67;;;6.10;99.90;;;;;;5115748;28;20417;-69
2023/12/18 10:43:49;;;;;;;8.80;8.00;;;6.20;99.90;;;;;;5115344;28;20478;-69
2023/12/18 10:46:15;;;;;;;8.10;7.30;;;6.10;99.90;;;;;;5116028;28;20396;-69
2023/12/18 10:48:48;;;;;;;9.93;8.10;;;6.10;99.90;;;;;;5123781;27;20962;-69
2023/12/18 10:51:13;;;;;;;7.90;7.10;;;6.00;99.90;;;;;;5134874;27;20418;-69
2023/12/18 10:53:41;;;;;;;10.80;7.47;;;6.10;99.90;;;;;;5126233;27;20897;-69
2023/12/18 10:56:09;;;;;;;7.80;7.10;;;6.70;99.90;;;;;;5111621;27;20514;-69
2023/12/18 10:58:37;;;;;;;9.27;7.70;;;8.10;99.90;;;;;;5126255;27;20429;-68
2023/12/18 11:01:04;;;;;;;9.00;7.30;;;9.30;99.90;;;;;;5125001;27;20858;-69
2023/12/18 11:03:29;;;;;;;7.60;6.87;;;10.70;99.90;;;;;;5125549;27;20451;-69
2023/12/18 11:05:56;;;;;;;8.13;7.00;;;12.60;99.90;;;;;;5120515;27;20392;-69
2023/12/18 11:08:22;;;;;;;8.70;6.70;;;13.70;99.90;;;;;;5124860;27;20739;-70
2023/12/18 11:10:48;;;;;;;7.97;7.13;;;15.30;99.90;;;;;;5124119;27;20415;-70
2023/12/18 11:13:23;;;;;;;8.50;7.73;;;16.60;98.70;;;;;;5125665;27;20456;-70
2023/12/18 11:16:06;;;;;;;10.50;8.50;;;17.40;95.50;;;;;;5124185;27;20451;-70
2023/12/18 11:18:46;;;;;;;11.93;10.73;;;18.30;92.50;;;;;;5122972;27;20812;-71
2023/12/18 11:21:11;;;;;;;12.60;11.30;;;18.60;90.10;;;;;;5123107;27;20502;-69
2023/12/18 11:23:41;;;;;;;12.93;11.63;;;19.00;88.50;;;;;;5123423;27;20541;-70
2023/12/18 11:26:12;;;;;;;14.87;11.60;;;19.80;84.90;;;;;;5122302;27;20164;-70
2023/12/18 11:28:38;;;;;;;10.53;8.67;;;20.30;81.70;;;;;;5124164;27;20401;-70
2023/12/18 11:31:06;;;;;;;10.17;8.77;;;19.60;82.20;;;;;;5135392;27;20764;-70
2023/12/18 11:33:31;;;;;;;10.33;9.27;;;19.30;83.40;;;;;;5128700;27;20936;-70
2023/12/18 11:35:57;;;;;;;10.13;9.13;;;18.80;84.00;;;;;;5094023;28;20437;-70
2023/12/18 11:38:24;;;;;;;11.10;10.03;;;19.20;83.00;;;;;;5093616;28;20419;-70
2023/12/18 11:40:52;;;;;;;10.70;9.60;;;18.80;83.10;;;;;;5093886;28;20655;-70
2023/12/18 11:43:39;;;;;;;11.57;10.43;;;19.70;82.20;;;;;;5111061;28;20453;-68
2023/12/18 11:46:09;;;;;;;13.00;11.80;;;20.30;77.90;;;;;;5113193;28;20407;-71
2023/12/18 11:48:35;;;;;;;13.00;11.70;;;20.90;75.20;;;;;;5114567;27;20482;-70
2023/12/18 11:51:04;;;;;;;12.53;11.30;;;21.00;72.50;;;;;;5114442;28;20430;-71
2023/12/18 11:53:33;;;;;;;12.33;11.23;;;20.90;72.40;;;;;;5115351;28;20466;-71
2023/12/18 11:55:58;;;;;;;13.03;11.73;;;20.70;69.20;;;;;;5114471;28;20414;-70
2023/12/18 11:58:26;;;;;;;11.47;10.27;;;19.50;72.00;;;;;;5113876;28;20777;-70
2023/12/18 12:00:52;;;;;;;13.00;11.80;;;19.00;73.80;;;;;;5114016;28;20179;-70
2023/12/18 12:03:18;;;;;;;11.80;10.60;;;19.40;73.20;;;;;;5114005;27;20512;-68
2023/12/18 12:05:48;;;;;;;12.37;10.93;;;19.60;72.00;;;;;;5114181;28;20443;-71
2023/12/18 12:08:15;;;;;;;11.30;10.20;;;20.00;72.10;;;;;;5113967;28;20444;-68
2023/12/18 12:10:45;;;;;;;13.07;10.70;;;20.40;71.20;;;;;;5114185;28;20774;-68
2023/12/18 12:13:21;;;;;;;11.10;9.17;;;20.70;70.30;;;;;;5114921;28;20410;-68
2023/12/18 12:15:58;;;;;;;10.60;9.63;;;20.90;68.30;;;;;;5093443;28;20472;-68
2023/12/18 12:18:29;;;;;;;11.60;10.27;;;21.10;68.50;;;;;;5093763;28;20476;-68
2023/12/18 12:20:55;;;;;;;11.20;10.10;;;21.20;69.70;;;;;;5093218;28;20424;-69
2023/12/18 12:23:22;;;;;;;11.03;9.90;;;21.50;69.50;;;;;;5094106;28;20446;-68
2023/12/18 12:25:50;;;;;;;11.77;10.60;;;20.90;68.90;;;;;;5113749;28;20406;-68
2023/12/18 12:28:16;;;;;;;11.20;10.10;;;18.60;72.40;;;;;;5114730;28;20481;-71
2023/12/18 12:30:46;;;;;;;11.23;10.13;;;17.00;76.20;;;;;;5113509;28;20399;-70
2023/12/18 12:33:21;;;;;;;12.27;11.03;;;15.60;80.10;;;;;;5113605;28;20410;-70
2023/12/18 12:35:46;;;;;;;12.80;11.60;;;14.10;86.20;;;;;;5093336;28;20432;-71
2023/12/18 12:38:16;;;;;;;13.73;12.33;;;12.70;91.40;;;;;;5093272;28;20407;-71
2023/12/18 12:40:43;;;;;;;12.70;11.50;;;11.50;95.30;;;;;;5092960;28;20550;-70
2023/12/18 12:43:10;;;;;;;14.57;13.20;;;10.70;99.10;;;;;;5093357;28;20452;-70
2023/12/18 12:45:37;;;;;;;12.70;11.50;;;10.10;99.90;;;;;;5112917;28;20414;-70